createdAt,value
2018-10-18T00:00:51.411Z,1014.38
2018-10-18T00:01:51.404Z,1014.37
2018-10-18T00:02:51.402Z,1014.33
2018-10-18T00:03:51.395Z,1014.36
2018-10-18T00:04:51.401Z,1014.34
2018-10-18T00:05:51.405Z,1014.36
2018-10-18T00:06:51.389Z,1014.35
2018-10-18T00:07:51.410Z,1014.34
2018-10-18T00:08:51.372Z,1014.36
2018-10-18T00:09:51.364Z,1014.39
2018-10-18T00:10:51.359Z,1014.37
2018-10-18T00:11:51.354Z,1014.40
2018-10-18T00:12:51.349Z,1014.43
2018-10-18T00:13:51.357Z,1014.43
2018-10-18T00:14:51.341Z,1014.42
2018-10-18T00:15:51.340Z,1014.37
2018-10-18T00:16:51.333Z,1014.40
2018-10-18T00:17:51.383Z,1014.43
2018-10-18T00:18:51.324Z,1014.43
2018-10-18T00:19:51.332Z,1014.43
2018-10-18T00:20:51.320Z,1014.43
2018-10-18T00:21:51.308Z,1014.40
2018-10-18T00:22:51.301Z,1014.44
2018-10-18T00:23:51.335Z,1014.46
2018-10-18T00:24:51.288Z,1014.47
2018-10-18T00:25:51.287Z,1014.46
2018-10-18T00:26:51.278Z,1014.49
2018-10-18T00:27:51.278Z,1014.48
2018-10-18T00:28:51.269Z,1014.48
2018-10-18T00:29:51.268Z,1014.50
2018-10-18T00:30:51.260Z,1014.52
2018-10-18T00:31:51.280Z,1014.53
2018-10-18T00:32:51.248Z,1014.52
2018-10-18T00:33:51.246Z,1014.53
2018-10-18T00:34:51.239Z,1014.53
2018-10-18T00:35:51.237Z,1014.56
2018-10-18T00:36:51.226Z,1014.58
2018-10-18T00:37:51.226Z,1014.57
2018-10-18T00:38:51.217Z,1014.58
2018-10-18T00:39:51.218Z,1014.58
2018-10-18T00:40:51.209Z,1014.60
2018-10-18T00:41:51.209Z,1014.62
2018-10-18T00:42:51.205Z,1014.59
2018-10-18T00:43:51.197Z,1014.64
2018-10-18T00:44:51.191Z,1014.61
2018-10-18T00:45:51.182Z,1014.62
2018-10-18T00:46:51.177Z,1014.59
2018-10-18T00:47:51.171Z,1014.61
2018-10-18T00:48:51.180Z,1014.63
2018-10-18T00:49:51.208Z,1014.54
2018-10-18T00:50:51.162Z,1014.54
2018-10-18T00:51:51.152Z,1014.55
2018-10-18T00:52:51.157Z,1014.57
2018-10-18T00:53:51.141Z,1014.57
2018-10-18T00:54:51.135Z,1014.59
2018-10-18T00:55:51.133Z,1014.58
2018-10-18T00:56:51.147Z,1014.61
2018-10-18T00:57:51.134Z,1014.61
2018-10-18T00:58:51.119Z,1014.59
2018-10-18T00:59:51.111Z,1014.65
2018-10-18T01:00:51.106Z,1014.65
2018-10-18T01:01:51.109Z,1014.63
2018-10-18T01:02:51.095Z,1014.65
2018-10-18T01:03:51.094Z,1014.67
2018-10-18T01:04:51.087Z,1014.66
2018-10-18T01:05:51.081Z,1014.66
2018-10-18T01:06:51.078Z,1014.68
2018-10-18T01:07:51.071Z,1014.67
2018-10-18T01:08:51.067Z,1014.71
2018-10-18T01:09:51.062Z,1014.70
2018-10-18T01:10:51.064Z,1014.70
2018-10-18T01:11:51.078Z,1014.68
2018-10-18T01:12:51.048Z,1014.70
2018-10-18T01:13:51.041Z,1014.69
2018-10-18T01:14:51.035Z,1014.71
2018-10-18T01:15:51.035Z,1014.70
2018-10-18T01:16:51.025Z,1014.73
2018-10-18T01:17:51.023Z,1014.74
2018-10-18T01:18:51.022Z,1014.72
2018-10-18T01:19:51.013Z,1014.77
2018-10-18T01:20:51.008Z,1014.75
2018-10-18T01:21:51.003Z,1014.79
2018-10-18T01:22:50.998Z,1014.79
2018-10-18T01:23:50.996Z,1014.79
2018-10-18T01:24:51.011Z,1014.79
2018-10-18T01:25:51.000Z,1014.82
2018-10-18T01:26:50.976Z,1014.81
2018-10-18T01:27:50.981Z,1014.77
2018-10-18T01:28:50.967Z,1014.79
2018-10-18T01:29:50.963Z,1014.82
2018-10-18T01:30:50.958Z,1014.81
2018-10-18T01:31:50.955Z,1014.77
2018-10-18T01:32:50.960Z,1014.79
2018-10-18T01:33:50.946Z,1014.76
2018-10-18T01:34:50.943Z,1014.81
2018-10-18T01:35:50.952Z,1014.83
2018-10-18T01:36:50.931Z,1014.81
2018-10-18T01:37:50.923Z,1014.82
2018-10-18T01:38:50.931Z,1014.86
2018-10-18T01:39:50.922Z,1014.86
2018-10-18T01:40:50.911Z,1014.83
2018-10-18T01:41:50.920Z,1014.86
2018-10-18T01:42:50.903Z,1014.84
2018-10-18T01:43:50.893Z,1014.86
2018-10-18T01:44:50.892Z,1014.85
2018-10-18T01:45:50.889Z,1014.85
2018-10-18T01:46:50.879Z,1014.83
2018-10-18T01:47:50.875Z,1014.85
2018-10-18T01:48:50.875Z,1014.85
2018-10-18T01:49:50.868Z,1014.83
2018-10-18T01:50:50.861Z,1014.82
2018-10-18T01:51:50.856Z,1014.85
2018-10-18T01:52:50.860Z,1014.81
2018-10-18T01:53:50.851Z,1014.80
2018-10-18T01:54:50.839Z,1014.82
2018-10-18T01:55:50.838Z,1014.82
2018-10-18T01:56:50.831Z,1014.82
2018-10-18T01:57:50.829Z,1014.84
2018-10-18T01:58:50.846Z,1014.87
2018-10-18T01:59:50.817Z,1014.85
2018-10-18T02:00:50.813Z,1014.86
2018-10-18T02:01:50.810Z,1014.85
2018-10-18T02:02:50.806Z,1014.84
2018-10-18T02:03:50.796Z,1014.85
2018-10-18T02:04:50.792Z,1014.86
2018-10-18T02:05:50.786Z,1014.86
2018-10-18T02:06:50.788Z,1014.85
2018-10-18T02:07:50.781Z,1014.86
2018-10-18T02:08:50.777Z,1014.84
2018-10-18T02:09:50.774Z,1014.89
2018-10-18T02:10:50.763Z,1014.87
2018-10-18T02:11:50.767Z,1014.88
2018-10-18T02:12:50.753Z,1014.91
2018-10-18T02:13:50.752Z,1014.91
2018-10-18T02:14:50.743Z,1014.91
2018-10-18T02:15:50.739Z,1014.91
2018-10-18T02:16:50.737Z,1014.87
2018-10-18T02:17:50.732Z,1014.92
2018-10-18T02:18:50.737Z,1014.92
2018-10-18T02:19:50.723Z,1014.89
2018-10-18T02:20:50.722Z,1014.88
2018-10-18T02:21:50.711Z,1014.91
2018-10-18T02:22:50.708Z,1014.91
2018-10-18T02:23:50.697Z,1014.91
2018-10-18T02:24:50.702Z,1014.94
2018-10-18T02:25:50.692Z,1014.94
2018-10-18T02:26:50.687Z,1014.90
2018-10-18T02:27:50.687Z,1014.92
2018-10-18T02:28:50.677Z,1014.91
2018-10-18T02:29:50.682Z,1014.93
2018-10-18T02:30:50.667Z,1014.92
2018-10-18T02:31:50.668Z,1014.92
2018-10-18T02:32:50.657Z,1014.89
2018-10-18T02:33:50.661Z,1014.89
2018-10-18T02:34:50.698Z,1014.82
2018-10-18T02:35:50.647Z,1014.86
2018-10-18T02:36:50.643Z,1014.84
2018-10-18T02:37:50.635Z,1014.86
2018-10-18T02:38:50.637Z,1014.86
2018-10-18T02:39:50.625Z,1014.89
2018-10-18T02:40:50.624Z,1014.89
2018-10-18T02:41:50.621Z,1014.90
2018-10-18T02:42:50.624Z,1014.87
2018-10-18T02:43:50.609Z,1014.88
2018-10-18T02:44:50.604Z,1014.92
2018-10-18T02:45:50.597Z,1014.92
2018-10-18T02:46:50.593Z,1014.90
2018-10-18T02:47:50.591Z,1014.90
2018-10-18T02:48:50.582Z,1014.90
2018-10-18T02:49:50.582Z,1014.92
2018-10-18T02:50:50.572Z,1014.91
2018-10-18T02:51:50.577Z,1014.91
2018-10-18T02:52:50.564Z,1014.89
2018-10-18T02:53:50.560Z,1014.90
2018-10-18T02:54:50.555Z,1014.90
2018-10-18T02:55:50.556Z,1014.87
2018-10-18T02:56:50.549Z,1014.83
2018-10-18T02:57:50.540Z,1014.84
2018-10-18T02:58:50.536Z,1014.86
2018-10-18T02:59:50.527Z,1014.83
2018-10-18T03:00:50.525Z,1014.86
2018-10-18T03:01:50.521Z,1014.87
2018-10-18T03:02:50.515Z,1014.90
2018-10-18T03:03:50.511Z,1014.86
2018-10-18T03:05:05.015Z,1014.88
2018-10-18T03:05:50.502Z,1014.89
2018-10-18T03:06:50.495Z,1014.90
2018-10-18T03:07:50.493Z,1014.92
2018-10-18T03:08:50.486Z,1014.92
2018-10-18T03:09:50.482Z,1014.89
2018-10-18T03:10:50.479Z,1014.93
2018-10-18T03:11:50.476Z,1014.95
2018-10-18T03:12:50.470Z,1014.91
2018-10-18T03:13:50.467Z,1014.92
2018-10-18T03:14:50.456Z,1014.96
2018-10-18T03:15:50.503Z,1014.96
2018-10-18T03:16:50.448Z,1014.96
2018-10-18T03:17:50.445Z,1014.98
2018-10-18T03:18:50.441Z,1014.95
2018-10-18T03:19:50.438Z,1014.96
2018-10-18T03:20:50.432Z,1014.96
2018-10-18T03:21:50.425Z,1014.95
2018-10-18T03:22:50.423Z,1014.96
2018-10-18T03:23:50.414Z,1014.95
2018-10-18T03:24:50.410Z,1014.96
2018-10-18T03:25:50.405Z,1014.94
2018-10-18T03:26:50.403Z,1014.93
2018-10-18T03:27:50.394Z,1014.96
2018-10-18T03:28:50.393Z,1014.95
2018-10-18T03:29:50.390Z,1014.96
2018-10-18T03:30:50.381Z,1014.98
2018-10-18T03:31:50.377Z,1015.00
2018-10-18T03:32:50.372Z,1015.01
2018-10-18T03:33:50.371Z,1015.01
2018-10-18T03:34:50.362Z,1015.06
2018-10-18T03:35:50.365Z,1015.06
2018-10-18T03:36:50.351Z,1015.04
2018-10-18T03:37:50.347Z,1015.06
2018-10-18T03:38:50.353Z,1015.05
2018-10-18T03:39:50.341Z,1015.06
2018-10-18T03:40:50.340Z,1015.05
2018-10-18T03:41:50.328Z,1015.04
2018-10-18T03:42:50.324Z,1015.09
2018-10-18T03:43:50.322Z,1015.08
2018-10-18T03:44:50.311Z,1015.11
2018-10-18T03:45:50.307Z,1015.07
2018-10-18T03:46:50.307Z,1015.09
2018-10-18T03:47:50.302Z,1015.10
2018-10-18T03:48:50.292Z,1015.07
2018-10-18T03:49:50.288Z,1015.09
2018-10-18T03:50:50.289Z,1015.06
2018-10-18T03:51:50.280Z,1015.09
2018-10-18T03:52:50.285Z,1015.05
2018-10-18T03:53:50.282Z,1015.07
2018-10-18T03:54:50.265Z,1015.08
2018-10-18T03:55:50.266Z,1015.10
2018-10-18T03:56:50.256Z,1015.11
2018-10-18T03:57:50.250Z,1015.13
2018-10-18T03:58:50.250Z,1015.12
2018-10-18T03:59:50.371Z,1015.14
2018-10-18T04:00:50.252Z,1015.11
2018-10-18T04:01:50.251Z,1015.16
2018-10-18T04:02:50.224Z,1015.14
2018-10-18T04:03:50.221Z,1015.14
2018-10-18T04:04:50.219Z,1015.13
2018-10-18T04:05:50.213Z,1015.14
2018-10-18T04:06:50.208Z,1015.14
2018-10-18T04:07:50.207Z,1015.13
2018-10-18T04:08:50.196Z,1015.22
2018-10-18T04:09:50.199Z,1015.18
2018-10-18T04:10:50.194Z,1015.24
2018-10-18T04:11:50.182Z,1015.21
2018-10-18T04:12:50.252Z,1015.21
2018-10-18T04:13:50.177Z,1015.20
2018-10-18T04:14:50.172Z,1015.22
2018-10-18T04:15:50.170Z,1015.21
2018-10-18T04:16:50.161Z,1015.21
2018-10-18T04:17:50.228Z,1015.21
2018-10-18T04:18:50.152Z,1015.24
2018-10-18T04:19:50.148Z,1015.26
2018-10-18T04:20:50.144Z,1015.25
2018-10-18T04:21:50.139Z,1015.22
2018-10-18T04:22:50.132Z,1015.24
2018-10-18T04:23:50.129Z,1015.24
2018-10-18T04:24:50.122Z,1015.26
2018-10-18T04:25:50.120Z,1015.24
2018-10-18T04:26:50.109Z,1015.25
2018-10-18T04:27:50.122Z,1015.24
2018-10-18T04:28:50.111Z,1015.27
2018-10-18T04:29:50.098Z,1015.24
2018-10-18T04:30:50.101Z,1015.25
2018-10-18T04:31:50.086Z,1015.24
2018-10-18T04:32:50.084Z,1015.25
2018-10-18T04:33:50.077Z,1015.23
2018-10-18T04:34:50.071Z,1015.26
2018-10-18T04:35:50.069Z,1015.25
2018-10-18T04:36:50.061Z,1015.27
2018-10-18T04:37:50.067Z,1015.28
2018-10-18T04:38:50.053Z,1015.28
2018-10-18T04:39:50.054Z,1015.31
2018-10-18T04:40:50.041Z,1015.31
2018-10-18T04:41:50.038Z,1015.29
2018-10-18T04:42:50.030Z,1015.32
2018-10-18T04:43:50.027Z,1015.35
2018-10-18T04:44:50.022Z,1015.35
2018-10-18T04:45:50.019Z,1015.35
2018-10-18T04:46:50.014Z,1015.37
2018-10-18T04:47:50.118Z,1015.37
2018-10-18T04:48:50.124Z,1015.43
2018-10-18T04:49:50.001Z,1015.46
2018-10-18T04:50:50.001Z,1015.43
2018-10-18T04:51:49.992Z,1015.41
2018-10-18T04:52:49.982Z,1015.42
2018-10-18T04:53:49.976Z,1015.46
2018-10-18T04:54:49.978Z,1015.48
2018-10-18T04:55:49.969Z,1015.44
2018-10-18T04:56:50.066Z,1015.43
2018-10-18T04:57:49.962Z,1015.48
2018-10-18T04:58:49.957Z,1015.47
2018-10-18T04:59:49.949Z,1015.45
2018-10-18T05:00:49.940Z,1015.47
2018-10-18T05:01:49.940Z,1015.49
2018-10-18T05:02:50.080Z,1015.50
2018-10-18T05:03:49.945Z,1015.50
2018-10-18T05:04:49.939Z,1015.51
2018-10-18T05:05:49.920Z,1015.52
2018-10-18T05:06:49.915Z,1015.54
2018-10-18T05:07:49.916Z,1015.52
2018-10-18T05:08:49.908Z,1015.54
2018-10-18T05:09:49.904Z,1015.52
2018-10-18T05:10:49.912Z,1015.52
2018-10-18T05:11:49.896Z,1015.51
2018-10-18T05:12:49.909Z,1015.50
2018-10-18T05:13:49.881Z,1015.51
2018-10-18T05:14:49.877Z,1015.49
2018-10-18T05:15:49.879Z,1015.52
2018-10-18T05:16:49.871Z,1015.51
2018-10-18T05:17:49.867Z,1015.53
2018-10-18T05:18:49.859Z,1015.52
2018-10-18T05:19:49.855Z,1015.49
2018-10-18T05:20:49.852Z,1015.51
2018-10-18T05:21:49.842Z,1015.45
2018-10-18T05:22:49.839Z,1015.48
2018-10-18T05:23:49.867Z,1015.49
2018-10-18T05:24:49.851Z,1015.44
2018-10-18T05:25:49.831Z,1015.46
2018-10-18T05:26:49.822Z,1015.45
2018-10-18T05:27:49.813Z,1015.41
2018-10-18T05:28:49.812Z,1015.40
2018-10-18T05:29:49.805Z,1015.40
2018-10-18T05:30:49.804Z,1015.43
2018-10-18T05:31:49.886Z,1015.44
2018-10-18T05:32:49.792Z,1015.41
2018-10-18T05:33:49.785Z,1015.46
2018-10-18T05:34:49.778Z,1015.46
2018-10-18T05:35:49.774Z,1015.44
2018-10-18T05:36:49.772Z,1015.49
2018-10-18T05:37:49.846Z,1015.44
2018-10-18T05:38:49.763Z,1015.48
2018-10-18T05:39:49.753Z,1015.45
2018-10-18T05:40:49.754Z,1015.44
2018-10-18T05:41:49.748Z,1015.43
2018-10-18T05:42:49.740Z,1015.47
2018-10-18T05:43:49.767Z,1015.47
2018-10-18T05:44:49.728Z,1015.47
2018-10-18T05:45:49.724Z,1015.47
2018-10-18T05:46:49.752Z,1015.46
2018-10-18T05:47:49.717Z,1015.51
2018-10-18T05:48:49.713Z,1015.48
2018-10-18T05:49:49.711Z,1015.48
2018-10-18T05:50:49.704Z,1015.52
2018-10-18T05:51:49.699Z,1015.54
2018-10-18T05:52:49.720Z,1015.52
2018-10-18T05:53:49.875Z,1015.53
2018-10-18T05:54:49.679Z,1015.55
2018-10-18T05:55:49.701Z,1015.56
2018-10-18T05:56:49.679Z,1015.59
2018-10-18T05:57:49.662Z,1015.64
2018-10-18T05:58:49.661Z,1015.63
2018-10-18T05:59:49.651Z,1015.69
2018-10-18T06:00:49.652Z,1015.69
2018-10-18T06:01:49.653Z,1015.70
2018-10-18T06:02:49.639Z,1015.66
2018-10-18T06:03:49.639Z,1015.63
2018-10-18T06:04:49.631Z,1015.67
2018-10-18T06:05:49.632Z,1015.68
2018-10-18T06:06:49.618Z,1015.69
2018-10-18T06:07:49.623Z,1015.71
2018-10-18T06:08:49.606Z,1015.72
2018-10-18T06:09:49.619Z,1015.71
2018-10-18T06:10:49.595Z,1015.71
2018-10-18T06:11:49.593Z,1015.73
2018-10-18T06:12:49.584Z,1015.77
2018-10-18T06:13:49.578Z,1015.77
2018-10-18T06:14:49.574Z,1015.76
2018-10-18T06:15:49.575Z,1015.83
2018-10-18T06:16:49.565Z,1015.82
2018-10-18T06:17:49.563Z,1015.84
2018-10-18T06:18:49.555Z,1015.88
2018-10-18T06:19:49.551Z,1015.87
2018-10-18T06:20:49.539Z,1015.83
2018-10-18T06:21:49.536Z,1015.87
2018-10-18T06:22:49.575Z,1015.86
2018-10-18T06:23:49.529Z,1015.86
2018-10-18T06:24:49.522Z,1015.87
2018-10-18T06:25:49.515Z,1015.89
2018-10-18T06:26:49.514Z,1015.87
2018-10-18T06:27:49.504Z,1015.90
2018-10-18T06:28:49.498Z,1015.93
2018-10-18T06:29:49.497Z,1015.92
2018-10-18T06:30:49.494Z,1015.88
2018-10-18T06:31:49.489Z,1015.88
2018-10-18T06:32:49.485Z,1015.86
2018-10-18T06:33:49.474Z,1015.89
2018-10-18T06:34:50.128Z,1015.88
2018-10-18T06:35:49.461Z,1015.92
2018-10-18T06:36:49.456Z,1015.94
2018-10-18T06:37:49.451Z,1015.95
2018-10-18T06:38:49.451Z,1015.95
2018-10-18T06:39:49.446Z,1015.93
2018-10-18T06:40:49.456Z,1015.93
2018-10-18T06:41:49.431Z,1015.97
2018-10-18T06:42:49.427Z,1015.95
2018-10-18T06:43:49.424Z,1015.90
2018-10-18T06:44:49.418Z,1015.94
2018-10-18T06:45:49.416Z,1016.00
2018-10-18T06:46:49.412Z,1015.95
2018-10-18T06:47:49.567Z,1015.97
2018-10-18T06:48:49.404Z,1016.00
2018-10-18T06:49:50.147Z,1016.03
2018-10-18T06:50:49.387Z,1016.02
2018-10-18T06:51:49.453Z,1016.01
2018-10-18T06:52:49.375Z,1016.05
2018-10-18T06:53:49.371Z,1016.06
2018-10-18T06:54:49.362Z,1016.09
2018-10-18T06:55:49.366Z,1016.06
2018-10-18T06:56:49.354Z,1016.12
2018-10-18T06:57:49.351Z,1016.16
2018-10-18T06:58:49.347Z,1016.19
2018-10-18T06:59:49.429Z,1016.19
2018-10-18T07:00:49.338Z,1016.22
2018-10-18T07:01:49.330Z,1016.25
2018-10-18T07:02:49.325Z,1016.32
2018-10-18T07:03:49.320Z,1016.30
2018-10-18T07:04:49.321Z,1016.29
2018-10-18T07:05:49.340Z,1016.37
2018-10-18T07:06:49.305Z,1016.34
2018-10-18T07:07:49.303Z,1016.35
2018-10-18T07:08:49.337Z,1016.40
2018-10-18T07:09:49.294Z,1016.39
2018-10-18T07:10:49.336Z,1016.35
2018-10-18T07:11:49.288Z,1016.37
2018-10-18T07:12:49.294Z,1016.38
2018-10-18T07:13:49.273Z,1016.39
2018-10-18T07:14:49.272Z,1016.38
2018-10-18T07:15:49.262Z,1016.40
2018-10-18T07:16:49.253Z,1016.41
2018-10-18T07:17:49.326Z,1016.43
2018-10-18T07:18:49.250Z,1016.44
2018-10-18T07:19:49.247Z,1016.42
2018-10-18T07:20:49.235Z,1016.44
2018-10-18T07:21:49.229Z,1016.44
2018-10-18T07:22:49.225Z,1016.45
2018-10-18T07:23:49.222Z,1016.43
2018-10-18T07:24:49.222Z,1016.43
2018-10-18T07:25:49.210Z,1016.47
2018-10-18T07:26:49.212Z,1016.42
2018-10-18T07:27:49.213Z,1016.48
2018-10-18T07:28:49.196Z,1016.49
2018-10-18T07:29:49.190Z,1016.47
2018-10-18T07:30:49.186Z,1016.48
2018-10-18T07:31:49.184Z,1016.52
2018-10-18T07:32:49.181Z,1016.51
2018-10-18T07:33:49.177Z,1016.49
2018-10-18T07:34:49.169Z,1016.47
2018-10-18T07:35:49.168Z,1016.48
2018-10-18T07:36:49.157Z,1016.53
2018-10-18T07:37:49.153Z,1016.45
2018-10-18T07:38:49.150Z,1016.53
2018-10-18T07:39:49.150Z,1016.54
2018-10-18T07:40:49.140Z,1016.54
2018-10-18T07:41:49.142Z,1016.49
2018-10-18T07:42:49.130Z,1016.54
2018-10-18T07:43:49.127Z,1016.51
2018-10-18T07:44:49.123Z,1016.49
2018-10-18T07:45:49.115Z,1016.56
2018-10-18T07:46:49.175Z,1016.55
2018-10-18T07:47:49.109Z,1016.56
2018-10-18T07:48:49.107Z,1016.54
2018-10-18T07:49:49.093Z,1016.55
2018-10-18T07:50:49.093Z,1016.55
2018-10-18T07:51:49.090Z,1016.53
2018-10-18T07:52:49.118Z,1016.51
2018-10-18T07:53:49.080Z,1016.48
2018-10-18T07:54:49.069Z,1016.52
2018-10-18T07:55:49.075Z,1016.52
2018-10-18T07:56:49.072Z,1016.56
2018-10-18T07:57:49.061Z,1016.54
2018-10-18T07:58:49.055Z,1016.60
2018-10-18T07:59:49.061Z,1016.57
2018-10-18T08:00:49.201Z,1016.56
2018-10-18T08:01:49.047Z,1016.58
2018-10-18T08:02:49.043Z,1016.56
2018-10-18T08:03:49.031Z,1016.61
2018-10-18T08:04:49.024Z,1016.65
2018-10-18T08:05:49.027Z,1016.64
2018-10-18T08:06:49.025Z,1016.63
2018-10-18T08:07:49.036Z,1016.66
2018-10-18T08:08:49.037Z,1016.68
2018-10-18T08:09:49.046Z,1016.71
2018-10-18T08:10:49.031Z,1016.67
2018-10-18T08:11:48.997Z,1016.67
2018-10-18T08:12:48.989Z,1016.67
2018-10-18T08:13:48.987Z,1016.64
2018-10-18T08:14:48.990Z,1016.64
2018-10-18T08:15:48.984Z,1016.65
2018-10-18T08:16:49.012Z,1016.66
2018-10-18T08:17:48.969Z,1016.69
2018-10-18T08:18:48.965Z,1016.65
2018-10-18T08:19:48.967Z,1016.69
2018-10-18T08:20:48.959Z,1016.67
2018-10-18T08:21:48.956Z,1016.66
2018-10-18T08:22:48.952Z,1016.68
2018-10-18T08:23:48.949Z,1016.66
2018-10-18T08:24:48.942Z,1016.70
2018-10-18T08:25:48.935Z,1016.72
2018-10-18T08:26:48.933Z,1016.69
2018-10-18T08:27:48.931Z,1016.71
2018-10-18T08:28:48.926Z,1016.64
2018-10-18T08:29:48.917Z,1016.69
2018-10-18T08:30:48.917Z,1016.70
2018-10-18T08:31:48.993Z,1016.68
2018-10-18T08:32:48.908Z,1016.65
2018-10-18T08:33:48.907Z,1016.66
2018-10-18T08:34:48.902Z,1016.68
2018-10-18T08:35:48.902Z,1016.65
2018-10-18T08:36:48.894Z,1016.65
2018-10-18T08:37:48.915Z,1016.66
2018-10-18T08:38:48.885Z,1016.67
2018-10-18T08:39:48.883Z,1016.66
2018-10-18T08:40:48.881Z,1016.67
2018-10-18T08:41:48.877Z,1016.64
2018-10-18T08:42:48.873Z,1016.67
2018-10-18T08:43:48.886Z,1016.63
2018-10-18T08:44:48.868Z,1016.70
2018-10-18T08:45:48.862Z,1016.76
2018-10-18T08:46:48.859Z,1016.76
2018-10-18T08:47:48.858Z,1016.78
2018-10-18T08:48:48.858Z,1016.76
2018-10-18T08:49:48.980Z,1016.78
2018-10-18T08:50:48.862Z,1016.81
2018-10-18T08:51:48.849Z,1016.80
2018-10-18T08:52:48.845Z,1016.80
2018-10-18T08:53:48.847Z,1016.84
2018-10-18T08:54:48.848Z,1016.86
2018-10-18T08:55:48.846Z,1016.87
2018-10-18T08:56:48.862Z,1016.89
2018-10-18T08:57:48.842Z,1016.89
2018-10-18T08:58:48.844Z,1016.93
2018-10-18T08:59:48.840Z,1016.96
2018-10-18T09:00:48.840Z,1016.93
2018-10-18T09:01:48.837Z,1017.02
2018-10-18T09:02:48.838Z,1016.98
2018-10-18T09:03:48.837Z,1017.00
2018-10-18T09:04:48.842Z,1016.97
2018-10-18T09:05:48.835Z,1017.03
2018-10-18T09:06:48.837Z,1017.05
2018-10-18T09:07:48.838Z,1017.05
2018-10-18T09:08:48.839Z,1017.06
2018-10-18T09:09:48.838Z,1017.05
2018-10-18T09:10:48.841Z,1017.02
2018-10-18T09:11:48.847Z,1017.04
2018-10-18T09:12:48.840Z,1017.05
2018-10-18T09:13:48.838Z,1017.06
2018-10-18T09:14:48.844Z,1017.04
2018-10-18T09:15:48.868Z,1017.04
2018-10-18T09:16:48.852Z,1017.05
2018-10-18T09:17:48.849Z,1017.04
2018-10-18T09:18:48.849Z,1017.05
2018-10-18T09:19:48.849Z,1017.03
2018-10-18T09:20:48.851Z,1017.00
2018-10-18T09:21:48.853Z,1017.07
2018-10-18T09:22:48.855Z,1017.03
2018-10-18T09:23:48.937Z,1017.05
2018-10-18T09:24:48.863Z,1017.07
2018-10-18T09:25:48.861Z,1017.04
2018-10-18T09:26:48.862Z,1017.05
2018-10-18T09:27:48.870Z,1017.06
2018-10-18T09:28:48.863Z,1017.13
2018-10-18T09:29:48.886Z,1017.11
2018-10-18T09:30:48.877Z,1017.13
2018-10-18T09:31:48.884Z,1017.13
2018-10-18T09:32:48.872Z,1017.15
2018-10-18T09:33:48.880Z,1017.14
2018-10-18T09:34:48.878Z,1017.11
2018-10-18T09:35:48.883Z,1017.11
2018-10-18T09:36:48.888Z,1017.09
2018-10-18T09:37:48.890Z,1017.11
2018-10-18T09:38:48.893Z,1017.13
2018-10-18T09:39:48.895Z,1017.07
2018-10-18T09:40:48.899Z,1017.16
2018-10-18T09:41:48.895Z,1017.15
2018-10-18T09:42:48.902Z,1017.17
2018-10-18T09:43:48.903Z,1017.19
2018-10-18T09:44:49.173Z,1017.23
2018-10-18T09:45:48.933Z,1017.21
2018-10-18T09:46:48.908Z,1017.21
2018-10-18T09:47:48.933Z,1017.23
2018-10-18T09:48:48.917Z,1017.23
2018-10-18T09:49:48.936Z,1017.25
2018-10-18T09:50:48.943Z,1017.24
2018-10-18T09:51:48.926Z,1017.20
2018-10-18T09:52:48.948Z,1017.21
2018-10-18T09:53:48.926Z,1017.19
2018-10-18T09:54:56.798Z,1017.24
2018-10-18T09:56:42.570Z,1017.25
2018-10-18T09:57:42.547Z,1017.25
2018-10-18T09:58:42.551Z,1017.22
2018-10-18T09:59:42.553Z,1017.27
2018-10-18T10:00:42.553Z,1017.32
2018-10-18T10:01:42.558Z,1017.34
2018-10-18T10:02:42.558Z,1017.35
2018-10-18T10:03:43.386Z,1017.34
2018-10-18T10:04:42.569Z,1017.32
2018-10-18T10:05:42.570Z,1017.33
2018-10-18T10:06:42.574Z,1017.34
2018-10-18T10:07:42.573Z,1017.33
2018-10-18T10:08:42.578Z,1017.34
2018-10-18T10:09:42.582Z,1017.37
2018-10-18T10:10:42.578Z,1017.34
2018-10-18T10:11:42.614Z,1017.37
2018-10-18T10:12:42.584Z,1017.33
2018-10-18T10:13:42.633Z,1017.37
2018-10-18T10:14:42.590Z,1017.42
2018-10-18T10:15:42.588Z,1017.45
2018-10-18T10:16:42.581Z,1017.40
2018-10-18T10:17:42.689Z,1017.38
2018-10-18T10:18:42.591Z,1017.40
2018-10-18T10:19:43.450Z,1017.34
2018-10-18T10:20:42.586Z,1017.35
2018-10-18T10:21:42.591Z,1017.39
2018-10-18T10:22:42.595Z,1017.39
2018-10-18T10:23:42.598Z,1017.38
2018-10-18T10:24:42.656Z,1017.37
2018-10-18T10:25:42.594Z,1017.37
2018-10-18T10:26:42.596Z,1017.40
2018-10-18T10:27:42.596Z,1017.40
2018-10-18T10:28:42.639Z,1017.38
2018-10-18T10:29:42.601Z,1017.37
2018-10-18T10:30:42.601Z,1017.34
2018-10-18T10:31:42.595Z,1017.41
2018-10-18T10:32:42.606Z,1017.36
2018-10-18T10:33:42.594Z,1017.35
2018-10-18T10:34:42.594Z,1017.31
2018-10-18T10:35:42.697Z,1017.37
2018-10-18T10:36:42.594Z,1017.38
2018-10-18T10:37:42.592Z,1017.34
2018-10-18T10:38:42.595Z,1017.41
2018-10-18T10:39:42.589Z,1017.40
2018-10-18T10:40:42.594Z,1017.42
2018-10-18T10:41:42.590Z,1017.36
2018-10-18T10:42:42.626Z,1017.42
2018-10-18T10:43:42.595Z,1017.40
2018-10-18T10:44:42.602Z,1017.42
2018-10-18T10:45:42.673Z,1017.43
2018-10-18T10:46:42.587Z,1017.45
2018-10-18T10:47:42.581Z,1017.42
2018-10-18T10:48:42.581Z,1017.45
2018-10-18T10:49:42.576Z,1017.41
2018-10-18T10:50:42.591Z,1017.39
2018-10-18T10:51:42.580Z,1017.44
2018-10-18T10:52:42.574Z,1017.40
2018-10-18T10:53:42.574Z,1017.43
2018-10-18T10:54:42.585Z,1017.42
2018-10-18T10:55:42.566Z,1017.37
2018-10-18T10:56:42.565Z,1017.35
2018-10-18T10:57:42.570Z,1017.36
2018-10-18T10:58:42.566Z,1017.36
2018-10-18T10:59:42.563Z,1017.33
2018-10-18T11:00:42.560Z,1017.34
2018-10-18T11:01:42.555Z,1017.30
2018-10-18T11:02:42.559Z,1017.31
2018-10-18T11:03:42.563Z,1017.35
2018-10-18T11:04:42.557Z,1017.35
2018-10-18T11:05:42.557Z,1017.33
2018-10-18T11:06:42.545Z,1017.30
2018-10-18T11:07:42.541Z,1017.32
2018-10-18T11:08:42.537Z,1017.29
2018-10-18T11:09:42.598Z,1017.33
2018-10-18T11:10:42.535Z,1017.31
2018-10-18T11:11:42.573Z,1017.29
2018-10-18T11:12:42.527Z,1017.29
2018-10-18T11:13:42.527Z,1017.30
2018-10-18T11:14:42.526Z,1017.27
2018-10-18T11:15:42.517Z,1017.29
2018-10-18T11:16:42.528Z,1017.27
2018-10-18T11:17:42.519Z,1017.26
2018-10-18T11:18:42.513Z,1017.27
2018-10-18T11:19:42.511Z,1017.24
2018-10-18T11:20:42.502Z,1017.25
2018-10-18T11:21:42.569Z,1017.18
2018-10-18T11:22:42.503Z,1017.18
2018-10-18T11:23:42.495Z,1017.20
2018-10-18T11:24:42.591Z,1017.22
2018-10-18T11:25:42.489Z,1017.19
2018-10-18T11:26:42.493Z,1017.17
2018-10-18T11:27:42.482Z,1017.16
2018-10-18T11:28:42.481Z,1017.16
2018-10-18T11:29:42.484Z,1017.15
2018-10-18T11:30:42.479Z,1017.19
2018-10-18T11:31:42.482Z,1017.18
2018-10-18T11:32:42.480Z,1017.17
2018-10-18T11:33:42.467Z,1017.12
2018-10-18T11:34:42.471Z,1017.15
2018-10-18T11:35:42.464Z,1017.12
2018-10-18T11:36:42.462Z,1017.15
2018-10-18T11:37:42.464Z,1017.13
2018-10-18T11:38:42.460Z,1017.18
2018-10-18T11:39:42.453Z,1017.14
2018-10-18T11:40:42.452Z,1017.17
2018-10-18T11:41:42.451Z,1017.17
2018-10-18T11:42:42.508Z,1017.15
2018-10-18T11:43:42.450Z,1017.18
2018-10-18T11:44:42.438Z,1017.18
2018-10-18T11:45:42.436Z,1017.14
2018-10-18T11:46:42.436Z,1017.14
2018-10-18T11:47:42.432Z,1017.13
2018-10-18T11:48:42.426Z,1017.10
2018-10-18T11:49:42.424Z,1017.15
2018-10-18T11:50:42.426Z,1017.10
2018-10-18T11:51:42.556Z,1017.18
2018-10-18T11:52:42.422Z,1017.14
2018-10-18T11:53:42.417Z,1017.13
2018-10-18T11:54:42.421Z,1017.15
2018-10-18T11:55:42.410Z,1017.16
2018-10-18T11:56:42.402Z,1017.11
2018-10-18T11:57:42.398Z,1017.11
2018-10-18T11:58:42.410Z,1017.14
2018-10-18T11:59:42.425Z,1017.11
2018-10-18T12:00:42.396Z,1017.10
2018-10-18T12:01:42.396Z,1017.10
2018-10-18T12:02:42.429Z,1017.07
2018-10-18T12:03:42.380Z,1017.05
2018-10-18T12:04:42.379Z,1017.08
2018-10-18T12:05:42.380Z,1017.08
2018-10-18T12:06:42.375Z,1017.10